sensor_id;sensor_type;location;lat;lon;timestamp;pressure;altitude;pressure_sealevel;temperature;humidity
41040;BME280;48586;50.122;18.972;2023-05-11T00:00:29;98651.47;;;12.12;38.30
41040;BME280;48586;50.122;18.972;2023-05-11T00:02:34;98650.34;;;12.08;38.29
41040;BME280;48586;50.122;18.972;2023-05-11T00:04:40;98648.38;;;12.03;38.29
41040;BME280;48586;50.122;18.972;2023-05-11T00:06:46;98644.56;;;11.99;38.51
41040;BME280;48586;50.122;18.972;2023-05-11T00:08:53;98641.81;;;11.94;38.46
41040;BME280;48586;50.122;18.972;2023-05-11T00:10:59;98647.59;;;11.91;38.73
41040;BME280;48586;50.122;18.972;2023-05-11T00:13:03;98637.41;;;11.88;38.90
41040;BME280;48586;50.122;18.972;2023-05-11T00:15:08;98639.97;;;11.83;38.91
41040;BME280;48586;50.122;18.972;2023-05-11T00:17:14;98640.69;;;11.78;38.94
41040;BME280;48586;50.122;18.972;2023-05-11T00:19:19;98637.09;;;11.72;39.34
41040;BME280;48586;50.122;18.972;2023-05-11T00:21:23;98642.09;;;11.69;39.20
41040;BME280;48586;50.122;18.972;2023-05-11T00:23:28;98648.91;;;11.65;39.28
41040;BME280;48586;50.122;18.972;2023-05-11T00:25:35;98644.88;;;11.62;39.42
41040;BME280;48586;50.122;18.972;2023-05-11T00:27:39;98641.88;;;11.59;39.78
41040;BME280;48586;50.122;18.972;2023-05-11T00:29:46;98644.44;;;11.54;39.87
41040;BME280;48586;50.122;18.972;2023-05-11T00:31:50;98641.63;;;11.48;39.88
41040;BME280;48586;50.122;18.972;2023-05-11T00:33:54;98639.66;;;11.44;40.21
41040;BME280;48586;50.122;18.972;2023-05-11T00:36:00;98640.16;;;11.41;40.15
41040;BME280;48586;50.122;18.972;2023-05-11T00:38:05;98643.53;;;11.36;40.23
41040;BME280;48586;50.122;18.972;2023-05-11T00:40:10;98635.41;;;11.31;40.27
41040;BME280;48586;50.122;18.972;2023-05-11T00:42:18;98644.34;;;11.25;40.46
41040;BME280;48586;50.122;18.972;2023-05-11T00:44:22;98646.91;;;11.20;40.81
41040;BME280;48586;50.122;18.972;2023-05-11T00:46:26;98642.84;;;11.17;40.71
41040;BME280;48586;50.122;18.972;2023-05-11T00:48:32;98644.69;;;11.17;40.63
41040;BME280;48586;50.122;18.972;2023-05-11T00:50:36;98652.94;;;11.15;40.97
41040;BME280;48586;50.122;18.972;2023-05-11T00:52:41;98651.97;;;11.10;40.77
41040;BME280;48586;50.122;18.972;2023-05-11T00:54:46;98651.06;;;11.04;41.11
41040;BME280;48586;50.122;18.972;2023-05-11T00:56:51;98649.66;;;11.01;41.52
41040;BME280;48586;50.122;18.972;2023-05-11T00:58:58;98644.00;;;10.98;41.32
41040;BME280;48586;50.122;18.972;2023-05-11T01:01:04;98648.16;;;10.94;41.31
41040;BME280;48586;50.122;18.972;2023-05-11T01:03:09;98645.16;;;10.90;41.36
41040;BME280;48586;50.122;18.972;2023-05-11T01:05:14;98643.97;;;10.86;41.35
41040;BME280;48586;50.122;18.972;2023-05-11T01:07:24;98648.16;;;10.82;41.69
41040;BME280;48586;50.122;18.972;2023-05-11T01:09:45;98648.03;;;10.77;41.82
41040;BME280;48586;50.122;18.972;2023-05-11T01:12:07;98654.63;;;10.74;41.72
41040;BME280;48586;50.122;18.972;2023-05-11T01:14:27;98649.16;;;10.69;41.99
41040;BME280;48586;50.122;18.972;2023-05-11T01:16:42;98651.72;;;10.64;42.11
41040;BME280;48586;50.122;18.972;2023-05-11T01:18:56;98654.03;;;10.61;42.22
41040;BME280;48586;50.122;18.972;2023-05-11T01:21:08;98654.69;;;10.56;42.39
41040;BME280;48586;50.122;18.972;2023-05-11T01:23:43;98653.97;;;10.49;42.50
41040;BME280;48586;50.122;18.972;2023-05-11T01:26:08;98649.56;;;10.43;42.46
41040;BME280;48586;50.122;18.972;2023-05-11T01:28:34;98645.94;;;10.37;42.96
41040;BME280;48586;50.122;18.972;2023-05-11T01:31:07;98650.91;;;10.34;42.74
41040;BME280;48586;50.122;18.972;2023-05-11T01:33:19;98644.41;;;10.30;42.71
41040;BME280;48586;50.122;18.972;2023-05-11T01:35:32;98654.47;;;10.27;42.92
41040;BME280;48586;50.122;18.972;2023-05-11T01:37:47;98645.09;;;10.25;42.89
41040;BME280;48586;50.122;18.972;2023-05-11T01:39:57;98653.53;;;10.22;42.94
41040;BME280;48586;50.122;18.972;2023-05-11T01:42:08;98647.84;;;10.18;43.06
41040;BME280;48586;50.122;18.972;2023-05-11T01:44:18;98649.91;;;10.16;43.31
41040;BME280;48586;50.122;18.972;2023-05-11T01:46:31;98651.97;;;10.14;43.21
41040;BME280;48586;50.122;18.972;2023-05-11T01:48:38;98642.63;;;10.12;43.25
41040;BME280;48586;50.122;18.972;2023-05-11T01:50:48;98650.81;;;10.10;43.48
41040;BME280;48586;50.122;18.972;2023-05-11T01:52:54;98639.16;;;10.11;43.34
41040;BME280;48586;50.122;18.972;2023-05-11T01:55:03;98647.13;;;10.11;43.47
41040;BME280;48586;50.122;18.972;2023-05-11T01:57:11;98645.47;;;10.10;43.41
41040;BME280;48586;50.122;18.972;2023-05-11T01:59:18;98654.28;;;10.11;43.44
41040;BME280;48586;50.122;18.972;2023-05-11T02:01:23;98643.41;;;10.12;43.50
41040;BME280;48586;50.122;18.972;2023-05-11T02:03:35;98646.91;;;10.13;43.51
41040;BME280;48586;50.122;18.972;2023-05-11T02:05:42;98655.69;;;10.13;43.61
41040;BME280;48586;50.122;18.972;2023-05-11T02:07:50;98648.75;;;10.12;43.67
41040;BME280;48586;50.122;18.972;2023-05-11T02:09:59;98659.16;;;10.14;43.49
41040;BME280;48586;50.122;18.972;2023-05-11T02:12:08;98658.94;;;10.15;43.56
41040;BME280;48586;50.122;18.972;2023-05-11T02:14:17;98662.19;;;10.17;43.68
41040;BME280;48586;50.122;18.972;2023-05-11T02:16:28;98664.41;;;10.20;43.54
41040;BME280;48586;50.122;18.972;2023-05-11T02:18:39;98656.41;;;10.20;43.61
41040;BME280;48586;50.122;18.972;2023-05-11T02:20:46;98660.25;;;10.24;43.59
41040;BME280;48586;50.122;18.972;2023-05-11T02:22:52;98664.53;;;10.25;43.44
41040;BME280;48586;50.122;18.972;2023-05-11T02:24:59;98660.03;;;10.26;43.27
41040;BME280;48586;50.122;18.972;2023-05-11T02:27:04;98658.16;;;10.26;43.39
41040;BME280;48586;50.122;18.972;2023-05-11T02:29:08;98655.28;;;10.28;43.33
41040;BME280;48586;50.122;18.972;2023-05-11T02:31:18;98659.56;;;10.29;43.37
41040;BME280;48586;50.122;18.972;2023-05-11T02:33:33;98655.28;;;10.28;43.49
41040;BME280;48586;50.122;18.972;2023-05-11T02:35:42;98660.84;;;10.26;43.40
41040;BME280;48586;50.122;18.972;2023-05-11T02:37:54;98654.94;;;10.24;43.43
41040;BME280;48586;50.122;18.972;2023-05-11T02:40:09;98657.59;;;10.24;43.63
41040;BME280;48586;50.122;18.972;2023-05-11T02:42:22;98657.81;;;10.23;43.79
41040;BME280;48586;50.122;18.972;2023-05-11T02:44:36;98660.69;;;10.21;43.71
41040;BME280;48586;50.122;18.972;2023-05-11T02:46:47;98666.03;;;10.21;43.57
41040;BME280;48586;50.122;18.972;2023-05-11T02:48:58;98655.81;;;10.18;43.80
41040;BME280;48586;50.122;18.972;2023-05-11T02:51:10;98657.09;;;10.16;43.80
41040;BME280;48586;50.122;18.972;2023-05-11T02:53:27;98660.56;;;10.16;43.97
41040;BME280;48586;50.122;18.972;2023-05-11T02:55:33;98658.94;;;10.15;43.64
41040;BME280;48586;50.122;18.972;2023-05-11T02:57:39;98654.44;;;10.16;43.71
41040;BME280;48586;50.122;18.972;2023-05-11T02:59:44;98657.31;;;10.14;43.73
41040;BME280;48586;50.122;18.972;2023-05-11T03:01:51;98655.69;;;10.13;43.52
41040;BME280;48586;50.122;18.972;2023-05-11T03:04:02;98651.97;;;10.14;43.85
41040;BME280;48586;50.122;18.972;2023-05-11T03:06:07;98653.84;;;10.14;43.91
41040;BME280;48586;50.122;18.972;2023-05-11T03:08:12;98658.13;;;10.15;43.88
41040;BME280;48586;50.122;18.972;2023-05-11T03:10:17;98652.78;;;10.15;43.61
41040;BME280;48586;50.122;18.972;2023-05-11T03:12:22;98656.50;;;10.14;43.79
41040;BME280;48586;50.122;18.972;2023-05-11T03:14:33;98658.34;;;10.13;43.65
41040;BME280;48586;50.122;18.972;2023-05-11T03:16:40;98659.41;;;10.12;43.91
41040;BME280;48586;50.122;18.972;2023-05-11T03:18:48;98657.78;;;10.11;43.88
41040;BME280;48586;50.122;18.972;2023-05-11T03:20:59;98655.31;;;10.10;43.97
41040;BME280;48586;50.122;18.972;2023-05-11T03:23:05;98650.81;;;10.10;43.89
41040;BME280;48586;50.122;18.972;2023-05-11T03:25:11;98655.69;;;10.13;43.87
41040;BME280;48586;50.122;18.972;2023-05-11T03:27:19;98654.66;;;10.14;43.92
41040;BME280;48586;50.122;18.972;2023-05-11T03:29:27;98651.97;;;10.14;43.88
41040;BME280;48586;50.122;18.972;2023-05-11T03:31:38;98656.88;;;10.17;43.84
41040;BME280;48586;50.122;18.972;2023-05-11T03:33:42;98655.44;;;10.15;43.92
41040;BME280;48586;50.122;18.972;2023-05-11T03:35:50;98661.81;;;10.14;43.81
41040;BME280;48586;50.122;18.972;2023-05-11T03:38:03;98658.78;;;10.10;44.11
41040;BME280;48586;50.122;18.972;2023-05-11T03:40:11;98653.94;;;10.07;44.02
41040;BME280;48586;50.122;18.972;2023-05-11T03:42:25;98658.22;;;10.08;44.15
41040;BME280;48586;50.122;18.972;2023-05-11T03:44:33;98652.91;;;10.08;44.31
41040;BME280;48586;50.122;18.972;2023-05-11T03:46:40;98657.78;;;10.11;44.34
41040;BME280;48586;50.122;18.972;2023-05-11T03:48:51;98662.06;;;10.12;44.39
41040;BME280;48586;50.122;18.972;2023-05-11T03:50:59;98662.19;;;10.17;44.13
41040;BME280;48586;50.122;18.972;2023-05-11T03:53:06;98658.03;;;10.21;44.06
41040;BME280;48586;50.122;18.972;2023-05-11T03:55:11;98662.13;;;10.24;43.99
41040;BME280;48586;50.122;18.972;2023-05-11T03:57:16;98655.50;;;10.26;44.02
41040;BME280;48586;50.122;18.972;2023-05-11T03:59:20;98661.44;;;10.29;44.17
41040;BME280;48586;50.122;18.972;2023-05-11T04:01:27;98661.56;;;10.34;44.12
41040;BME280;48586;50.122;18.972;2023-05-11T04:03:32;98660.75;;;10.33;43.84
41040;BME280;48586;50.122;18.972;2023-05-11T04:05:36;98661.56;;;10.34;43.96
41040;BME280;48586;50.122;18.972;2023-05-11T04:07:44;98657.03;;;10.34;44.01
41040;BME280;48586;50.122;18.972;2023-05-11T04:09:50;98669.31;;;10.35;44.05
41040;BME280;48586;50.122;18.972;2023-05-11T04:11:54;98672.09;;;10.40;44.23
41040;BME280;48586;50.122;18.972;2023-05-11T04:14:00;98672.50;;;10.44;43.90
41040;BME280;48586;50.122;18.972;2023-05-11T04:16:04;98668.59;;;10.46;44.17
41040;BME280;48586;50.122;18.972;2023-05-11T04:18:09;98673.00;;;10.53;44.20
41040;BME280;48586;50.122;18.972;2023-05-11T04:20:14;98672.31;;;10.57;43.85
41040;BME280;48586;50.122;18.972;2023-05-11T04:22:18;98672.78;;;10.66;43.82
41040;BME280;48586;50.122;18.972;2023-05-11T04:24:23;98676.97;;;10.73;43.94
41040;BME280;48586;50.122;18.972;2023-05-11T04:26:30;98671.88;;;10.84;43.53
41040;BME280;48586;50.122;18.972;2023-05-11T04:28:34;98674.00;;;10.93;43.39
41040;BME280;48586;50.122;18.972;2023-05-11T04:30:38;98670.31;;;11.06;43.18
41040;BME280;48586;50.122;18.972;2023-05-11T04:32:43;98671.34;;;11.17;42.83
41040;BME280;48586;50.122;18.972;2023-05-11T04:34:47;98673.91;;;11.23;42.94
41040;BME280;48586;50.122;18.972;2023-05-11T04:36:56;98673.09;;;11.35;42.58
41040;BME280;48586;50.122;18.972;2023-05-11T04:39:03;98677.00;;;11.44;42.46
41040;BME280;48586;50.122;18.972;2023-05-11T04:41:07;98675.03;;;11.51;42.29
41040;BME280;48586;50.122;18.972;2023-05-11T04:43:17;98672.50;;;11.56;42.12
41040;BME280;48586;50.122;18.972;2023-05-11T04:45:23;98673.41;;;11.62;42.03
41040;BME280;48586;50.122;18.972;2023-05-11T04:47:27;98676.41;;;11.65;42.23
41040;BME280;48586;50.122;18.972;2023-05-11T04:49:32;98674.94;;;11.69;41.78
41040;BME280;48586;50.122;18.972;2023-05-11T04:51:37;98678.75;;;11.73;41.72
41040;BME280;48586;50.122;18.972;2023-05-11T04:53:43;98675.16;;;11.80;41.97
41040;BME280;48586;50.122;18.972;2023-05-11T04:55:47;98670.03;;;11.90;42.35
41040;BME280;48586;50.122;18.972;2023-05-11T04:57:53;98667.53;;;12.00;42.09
41040;BME280;48586;50.122;18.972;2023-05-11T05:00:01;98665.41;;;12.14;41.55
41040;BME280;48586;50.122;18.972;2023-05-11T05:02:07;98671.28;;;12.28;41.37
41040;BME280;48586;50.122;18.972;2023-05-11T05:04:12;98671.81;;;12.41;41.14
41040;BME280;48586;50.122;18.972;2023-05-11T05:06:17;98667.69;;;12.50;40.74
41040;BME280;48586;50.122;18.972;2023-05-11T05:08:21;98672.16;;;12.62;40.55
41040;BME280;48586;50.122;18.972;2023-05-11T05:10:27;98667.31;;;12.75;40.43
41040;BME280;48586;50.122;18.972;2023-05-11T05:12:32;98670.25;;;12.91;39.98
41040;BME280;48586;50.122;18.972;2023-05-11T05:14:37;98669.94;;;13.04;39.96
41040;BME280;48586;50.122;18.972;2023-05-11T05:16:46;98663.44;;;13.17;39.50
41040;BME280;48586;50.122;18.972;2023-05-11T05:18:50;98664.41;;;13.28;39.73
41040;BME280;48586;50.122;18.972;2023-05-11T05:20:55;98667.47;;;13.36;40.00
41040;BME280;48586;50.122;18.972;2023-05-11T05:23:01;98666.25;;;13.44;39.41
41040;BME280;48586;50.122;18.972;2023-05-11T05:25:07;98669.53;;;13.51;39.32
41040;BME280;48586;50.122;18.972;2023-05-11T05:27:12;98671.78;;;13.59;38.85
41040;BME280;48586;50.122;18.972;2023-05-11T05:29:18;98680.22;;;13.68;38.96
41040;BME280;48586;50.122;18.972;2023-05-11T05:31:24;98681.66;;;13.75;38.76
41040;BME280;48586;50.122;18.972;2023-05-11T05:33:31;98675.28;;;13.82;38.62
41040;BME280;48586;50.122;18.972;2023-05-11T05:35:36;98672.38;;;13.83;38.59
41040;BME280;48586;50.122;18.972;2023-05-11T05:37:42;98675.88;;;13.84;38.41
41040;BME280;48586;50.122;18.972;2023-05-11T05:39:47;98672.69;;;13.87;38.63
41040;BME280;48586;50.122;18.972;2023-05-11T05:41:53;98673.50;;;13.87;38.74
41040;BME280;48586;50.122;18.972;2023-05-11T05:43:58;98677.53;;;13.90;38.47
41040;BME280;48586;50.122;18.972;2023-05-11T05:46:03;98677.53;;;13.90;38.75
41040;BME280;48586;50.122;18.972;2023-05-11T05:48:10;98682.88;;;13.90;39.02
41040;BME280;48586;50.122;18.972;2023-05-11T05:50:19;98681.81;;;13.91;39.03
41040;BME280;48586;50.122;18.972;2023-05-11T05:52:23;98685.66;;;13.95;38.67
41040;BME280;48586;50.122;18.972;2023-05-11T05:54:30;98686.28;;;14.02;38.96
41040;BME280;48586;50.122;18.972;2023-05-11T05:56:35;98674.59;;;14.08;39.16
41040;BME280;48586;50.122;18.972;2023-05-11T05:58:42;98677.06;;;14.15;39.11
41040;BME280;48586;50.122;18.972;2023-05-11T06:00:48;98677.44;;;14.23;39.24
41040;BME280;48586;50.122;18.972;2023-05-11T06:02:53;98678.63;;;14.38;38.60
41040;BME280;48586;50.122;18.972;2023-05-11T06:05:01;98684.72;;;14.55;38.65
41040;BME280;48586;50.122;18.972;2023-05-11T06:07:09;98680.31;;;14.71;38.30
41040;BME280;48586;50.122;18.972;2023-05-11T06:09:13;98686.63;;;14.87;38.17
41040;BME280;48586;50.122;18.972;2023-05-11T06:11:18;98684.06;;;15.02;37.85
41040;BME280;48586;50.122;18.972;2023-05-11T06:13:24;98675.84;;;15.14;37.49
41040;BME280;48586;50.122;18.972;2023-05-11T06:15:29;98681.28;;;15.24;37.23
41040;BME280;48586;50.122;18.972;2023-05-11T06:17:42;98686.47;;;15.36;37.23
41040;BME280;48586;50.122;18.972;2023-05-11T06:19:48;98688.94;;;15.42;36.85
41040;BME280;48586;50.122;18.972;2023-05-11T06:21:57;98687.38;;;15.52;36.59
41040;BME280;48586;50.122;18.972;2023-05-11T06:24:08;98696.78;;;15.54;36.64
41040;BME280;48586;50.122;18.972;2023-05-11T06:26:17;98688.47;;;15.56;36.80
41040;BME280;48586;50.122;18.972;2023-05-11T06:28:26;98690.91;;;15.57;36.77
41040;BME280;48586;50.122;18.972;2023-05-11T06:30:34;98696.25;;;15.57;36.62
41040;BME280;48586;50.122;18.972;2023-05-11T06:32:43;98690.34;;;15.55;36.91
41040;BME280;48586;50.122;18.972;2023-05-11T06:34:48;98695.69;;;15.50;36.65
41040;BME280;48586;50.122;18.972;2023-05-11T06:36:54;98695.91;;;15.38;36.73
41040;BME280;48586;50.122;18.972;2023-05-11T06:39:02;98696.56;;;15.23;36.72
41040;BME280;48586;50.122;18.972;2023-05-11T06:41:11;98694.91;;;15.12;36.93
41040;BME280;48586;50.122;18.972;2023-05-11T06:43:15;98701.75;;;14.98;37.30
41040;BME280;48586;50.122;18.972;2023-05-11T06:45:23;98698.38;;;14.86;37.68
41040;BME280;48586;50.122;18.972;2023-05-11T06:47:28;98700.50;;;14.79;38.25
41040;BME280;48586;50.122;18.972;2023-05-11T06:49:33;98695.09;;;14.73;37.99
41040;BME280;48586;50.122;18.972;2023-05-11T06:51:39;98699.56;;;14.68;38.18
41040;BME280;48586;50.122;18.972;2023-05-11T06:53:45;98695.00;;;14.68;38.29
41040;BME280;48586;50.122;18.972;2023-05-11T06:55:50;98699.38;;;14.74;38.68
41040;BME280;48586;50.122;18.972;2023-05-11T06:58:01;98686.34;;;14.88;39.17
41040;BME280;48586;50.122;18.972;2023-05-11T07:00:06;98697.03;;;15.10;39.16
41040;BME280;48586;50.122;18.972;2023-05-11T07:02:12;98683.50;;;15.32;38.50
41040;BME280;48586;50.122;18.972;2023-05-11T07:04:18;98684.44;;;15.53;38.27
41040;BME280;48586;50.122;18.972;2023-05-11T07:06:24;98683.75;;;15.73;38.07
41040;BME280;48586;50.122;18.972;2023-05-11T07:08:30;98690.03;;;15.94;37.52
41040;BME280;48586;50.122;18.972;2023-05-11T07:10:36;98681.22;;;16.14;37.63
41040;BME280;48586;50.122;18.972;2023-05-11T07:12:42;98675.41;;;16.37;37.65
41040;BME280;48586;50.122;18.972;2023-05-11T07:14:53;98677.31;;;16.57;37.13
41040;BME280;48586;50.122;18.972;2023-05-11T07:16:58;98677.34;;;16.72;36.84
41040;BME280;48586;50.122;18.972;2023-05-11T07:19:02;98671.44;;;16.81;36.70
41040;BME280;48586;50.122;18.972;2023-05-11T07:21:08;98675.22;;;16.90;36.75
41040;BME280;48586;50.122;18.972;2023-05-11T07:23:13;98668.75;;;16.96;36.02
41040;BME280;48586;50.122;18.972;2023-05-11T07:25:19;98670.91;;;17.04;37.05
41040;BME280;48586;50.122;18.972;2023-05-11T07:27:23;98666.59;;;17.08;36.21
41040;BME280;48586;50.122;18.972;2023-05-11T07:29:29;98670.88;;;17.14;36.45
41040;BME280;48586;50.122;18.972;2023-05-11T07:31:37;98671.16;;;17.18;36.08
41040;BME280;48586;50.122;18.972;2023-05-11T07:33:43;98669.81;;;17.20;36.58
41040;BME280;48586;50.122;18.972;2023-05-11T07:35:48;98668.19;;;17.24;36.36
41040;BME280;48586;50.122;18.972;2023-05-11T07:37:54;98664.94;;;17.28;35.88
41040;BME280;48586;50.122;18.972;2023-05-11T07:40:00;98663.06;;;17.33;36.08
41040;BME280;48586;50.122;18.972;2023-05-11T07:42:05;98664.94;;;17.38;36.33
41040;BME280;48586;50.122;18.972;2023-05-11T07:44:11;98662.22;;;17.43;35.75
41040;BME280;48586;50.122;18.972;2023-05-11T07:46:16;98665.44;;;17.50;35.33
41040;BME280;48586;50.122;18.972;2023-05-11T07:48:25;98665.16;;;17.57;36.02
41040;BME280;48586;50.122;18.972;2023-05-11T07:50:29;98662.97;;;17.64;35.77
41040;BME280;48586;50.122;18.972;2023-05-11T07:52:34;98661.59;;;17.66;35.19
41040;BME280;48586;50.122;18.972;2023-05-11T07:54:39;98660.03;;;17.76;35.18
41040;BME280;48586;50.122;18.972;2023-05-11T07:56:44;98658.38;;;17.85;35.12
41040;BME280;48586;50.122;18.972;2023-05-11T07:58:49;98665.31;;;17.96;35.09
41040;BME280;48586;50.122;18.972;2023-05-11T08:00:55;98663.66;;;18.00;32.02
41040;BME280;48586;50.122;18.972;2023-05-11T08:03:00;98660.72;;;18.02;33.09
41040;BME280;48586;50.122;18.972;2023-05-11T08:05:10;98657.66;;;18.13;34.29
41040;BME280;48586;50.122;18.972;2023-05-11T08:07:15;98660.06;;;18.20;33.26
41040;BME280;48586;50.122;18.972;2023-05-11T08:09:22;98659.75;;;18.27;32.77
41040;BME280;48586;50.122;18.972;2023-05-11T08:11:26;98652.16;;;18.34;33.79
41040;BME280;48586;50.122;18.972;2023-05-11T08:13:35;98647.78;;;18.43;33.43
41040;BME280;48586;50.122;18.972;2023-05-11T08:15:41;98650.47;;;18.53;33.24
41040;BME280;48586;50.122;18.972;2023-05-11T08:17:46;98655.78;;;18.63;32.13
41040;BME280;48586;50.122;18.972;2023-05-11T08:19:52;98655.44;;;18.70;32.16
41040;BME280;48586;50.122;18.972;2023-05-11T08:22:00;98651.88;;;18.80;32.40
41040;BME280;48586;50.122;18.972;2023-05-11T08:24:05;98642.66;;;18.86;32.25
41040;BME280;48586;50.122;18.972;2023-05-11T08:26:11;98647.94;;;18.96;32.57
41040;BME280;48586;50.122;18.972;2023-05-11T08:28:16;98652.75;;;19.04;32.59
41040;BME280;48586;50.122;18.972;2023-05-11T08:30:22;98649.44;;;19.12;32.20
41040;BME280;48586;50.122;18.972;2023-05-11T08:32:27;98645.06;;;19.16;31.04
41040;BME280;48586;50.122;18.972;2023-05-11T08:34:33;98640.72;;;19.20;32.23
41040;BME280;48586;50.122;18.972;2023-05-11T08:36:38;98642.78;;;19.29;32.19
41040;BME280;48586;50.122;18.972;2023-05-11T08:38:47;98646.28;;;19.34;31.63
41040;BME280;48586;50.122;18.972;2023-05-11T08:40:52;98644.34;;;19.40;31.35
41040;BME280;48586;50.122;18.972;2023-05-11T08:42:59;98650.19;;;19.47;31.77
41040;BME280;48586;50.122;18.972;2023-05-11T08:45:10;98650.72;;;19.49;30.65
41040;BME280;48586;50.122;18.972;2023-05-11T08:47:16;98646.84;;;19.55;31.83
41040;BME280;48586;50.122;18.972;2023-05-11T08:49:22;98640.31;;;19.61;31.40
41040;BME280;48586;50.122;18.972;2023-05-11T08:51:29;98639.16;;;19.67;30.85
41040;BME280;48586;50.122;18.972;2023-05-11T08:53:33;98646.94;;;19.74;30.36
41040;BME280;48586;50.122;18.972;2023-05-11T08:55:43;98650.19;;;19.71;29.97
41040;BME280;48586;50.122;18.972;2023-05-11T08:57:50;98640.91;;;19.77;31.81
41040;BME280;48586;50.122;18.972;2023-05-11T08:59:57;98637.31;;;19.87;32.29
41040;BME280;48586;50.122;18.972;2023-05-11T09:02:05;98634.47;;;19.97;31.61
41040;BME280;48586;50.122;18.972;2023-05-11T09:04:13;98635.13;;;20.08;31.02
41040;BME280;48586;50.122;18.972;2023-05-11T09:06:19;98635.53;;;20.20;31.32
41040;BME280;48586;50.122;18.972;2023-05-11T09:08:29;98637.28;;;20.30;31.26
41040;BME280;48586;50.122;18.972;2023-05-11T09:10:35;98623.69;;;20.35;30.80
41040;BME280;48586;50.122;18.972;2023-05-11T09:12:42;98624.13;;;20.42;29.89
41040;BME280;48586;50.122;18.972;2023-05-11T09:14:46;98619.94;;;20.49;30.46
41040;BME280;48586;50.122;18.972;2023-05-11T09:16:53;98620.59;;;20.60;29.63
41040;BME280;48586;50.122;18.972;2023-05-11T09:19:00;98628.78;;;20.74;30.53
41040;BME280;48586;50.122;18.972;2023-05-11T09:21:06;98624.28;;;20.83;30.04
41040;BME280;48586;50.122;18.972;2023-05-11T09:23:14;98625.53;;;20.91;28.84
41040;BME280;48586;50.122;18.972;2023-05-11T09:25:21;98621.31;;;20.98;28.52
41040;BME280;48586;50.122;18.972;2023-05-11T09:27:25;98625.25;;;21.06;28.38
41040;BME280;48586;50.122;18.972;2023-05-11T09:29:33;98619.69;;;21.16;28.56
41040;BME280;48586;50.122;18.972;2023-05-11T09:31:39;98618.16;;;21.24;28.22
41040;BME280;48586;50.122;18.972;2023-05-11T09:33:44;98611.94;;;21.37;28.14
41040;BME280;48586;50.122;18.972;2023-05-11T09:35:50;98604.34;;;21.53;27.20
41040;BME280;48586;50.122;18.972;2023-05-11T09:38:01;98621.72;;;21.66;27.77
41040;BME280;48586;50.122;18.972;2023-05-11T09:40:09;98613.28;;;21.81;27.26
41040;BME280;48586;50.122;18.972;2023-05-11T09:42:17;98609.63;;;22.00;26.57
41040;BME280;48586;50.122;18.972;2023-05-11T09:44:32;98617.03;;;22.21;26.63
41040;BME280;48586;50.122;18.972;2023-05-11T09:46:39;98624.81;;;22.37;25.38
41040;BME280;48586;50.122;18.972;2023-05-11T09:48:44;98616.22;;;22.57;24.57
41040;BME280;48586;50.122;18.972;2023-05-11T09:51:03;98616.34;;;22.75;23.97
41040;BME280;48586;50.122;18.972;2023-05-11T09:53:08;98606.59;;;22.73;23.14
41040;BME280;48586;50.122;18.972;2023-05-11T09:55:13;98615.66;;;22.69;23.81
41040;BME280;48586;50.122;18.972;2023-05-11T09:57:25;98602.38;;;22.67;22.79
41040;BME280;48586;50.122;18.972;2023-05-11T09:59:40;98596.72;;;22.78;23.88
41040;BME280;48586;50.122;18.972;2023-05-11T10:01:45;98606.19;;;22.89;22.70
41040;BME280;48586;50.122;18.972;2023-05-11T10:03:51;98604.53;;;23.02;23.55
41040;BME280;48586;50.122;18.972;2023-05-11T10:05:58;98595.81;;;23.13;22.76
41040;BME280;48586;50.122;18.972;2023-05-11T10:08:05;98593.31;;;23.26;21.50
41040;BME280;48586;50.122;18.972;2023-05-11T10:10:09;98608.06;;;23.33;21.66
41040;BME280;48586;50.122;18.972;2023-05-11T10:12:15;98589.06;;;23.42;21.28
41040;BME280;48586;50.122;18.972;2023-05-11T10:14:23;98595.78;;;23.53;20.73
41040;BME280;48586;50.122;18.972;2023-05-11T10:16:34;98596.53;;;23.67;21.58
41040;BME280;48586;50.122;18.972;2023-05-11T10:18:39;98597.81;;;23.79;20.80
41040;BME280;48586;50.122;18.972;2023-05-11T10:20:45;98583.09;;;23.88;20.69
41040;BME280;48586;50.122;18.972;2023-05-11T10:22:53;98585.84;;;23.97;20.06
41040;BME280;48586;50.122;18.972;2023-05-11T10:24:59;98580.09;;;24.07;19.93
41040;BME280;48586;50.122;18.972;2023-05-11T10:27:05;98581.69;;;24.17;19.86
41040;BME280;48586;50.122;18.972;2023-05-11T10:29:09;98578.50;;;24.24;19.90
41040;BME280;48586;50.122;18.972;2023-05-11T10:31:15;98580.13;;;24.33;19.52
41040;BME280;48586;50.122;18.972;2023-05-11T10:33:27;98576.91;;;24.40;19.52
41040;BME280;48586;50.122;18.972;2023-05-11T10:35:32;98572.75;;;24.42;19.10
41040;BME280;48586;50.122;18.972;2023-05-11T10:37:40;98568.09;;;24.52;18.49
41040;BME280;48586;50.122;18.972;2023-05-11T10:39:47;98562.63;;;24.60;18.87
41040;BME280;48586;50.122;18.972;2023-05-11T10:42:03;98568.41;;;24.67;18.87
41040;BME280;48586;50.122;18.972;2023-05-11T10:44:45;98564.84;;;24.76;18.91
41040;BME280;48586;50.122;18.972;2023-05-11T10:47:17;98569.94;;;24.86;18.19
41040;BME280;48586;50.122;18.972;2023-05-11T10:49:57;98559.00;;;25.03;17.81
41040;BME280;48586;50.122;18.972;2023-05-11T10:52:37;98555.31;;;25.08;17.67
41040;BME280;48586;50.122;18.972;2023-05-11T10:55:08;98560.97;;;25.32;17.90
41040;BME280;48586;50.122;18.972;2023-05-11T10:57:35;98548.69;;;25.56;16.79
41040;BME280;48586;50.122;18.972;2023-05-11T11:00:18;98547.66;;;25.90;17.52
41040;BME280;48586;50.122;18.972;2023-05-11T11:02:48;98555.00;;;26.40;16.95
41040;BME280;48586;50.122;18.972;2023-05-11T11:04:55;98555.72;;;26.82;15.63
41040;BME280;48586;50.122;18.972;2023-05-11T11:07:05;98551.75;;;27.29;15.99
41040;BME280;48586;50.122;18.972;2023-05-11T11:09:12;98548.09;;;27.86;16.01